createdAt,value
2019-03-24T00:02:03.776Z,102754.31
2019-03-24T00:04:32.926Z,102753.27
2019-03-24T00:07:02.108Z,102750.52
2019-03-24T00:09:31.246Z,102739.17
2019-03-24T00:12:00.403Z,102750.70
2019-03-24T00:14:29.564Z,102752.94
2019-03-24T00:16:59.009Z,102756.22
2019-03-24T00:19:28.051Z,102752.64
2019-03-24T00:21:57.262Z,102748.81
2019-03-24T00:24:26.310Z,102743.83
2019-03-24T00:26:55.366Z,102733.67
2019-03-24T00:29:24.499Z,102729.53
2019-03-24T00:31:53.626Z,102736.42
2019-03-24T00:34:22.741Z,102733.67
2019-03-24T00:36:51.879Z,102739.70
2019-03-24T00:39:20.930Z,102738.32
2019-03-24T00:41:49.991Z,102737.50
2019-03-24T00:44:19.303Z,102742.45
2019-03-24T00:46:48.408Z,102731.98
2019-03-24T00:49:17.544Z,102727.30
2019-03-24T00:51:46.670Z,102728.68
2019-03-24T00:54:15.730Z,102725.11
2019-03-24T00:56:44.767Z,102725.11
2019-03-24T00:59:13.996Z,102725.11
2019-03-24T01:01:43.102Z,102721.50
2019-03-24T01:04:12.311Z,102722.35
2019-03-24T01:06:41.362Z,102724.25
2019-03-24T01:09:10.890Z,102731.44
2019-03-24T01:11:40.022Z,102722.35
2019-03-24T01:14:09.071Z,102716.84
2019-03-24T01:16:38.216Z,102708.03
2019-03-24T01:19:07.333Z,102698.95
2019-03-24T01:21:36.453Z,102696.72
2019-03-24T01:24:06.237Z,102703.08
2019-03-24T01:26:35.370Z,102705.17
2019-03-24T01:29:04.391Z,102713.23
2019-03-24T01:31:33.514Z,102713.23
2019-03-24T01:34:02.627Z,102702.75
2019-03-24T01:36:31.931Z,102701.37
2019-03-24T01:39:01.054Z,102699.66
2019-03-24T01:41:30.114Z,102699.66
2019-03-24T01:43:59.499Z,102700.73
2019-03-24T01:46:28.549Z,102705.17
2019-03-24T01:48:57.674Z,102691.95
2019-03-24T01:51:26.803Z,102681.47
2019-03-24T01:53:55.939Z,102687.83
2019-03-24T01:56:24.985Z,102696.91
2019-03-24T01:58:54.023Z,102694.70
2019-03-24T02:01:23.142Z,102697.98
2019-03-24T02:03:52.255Z,102692.48
2019-03-24T02:06:21.600Z,102687.50
2019-03-24T02:08:50.636Z,102689.39
2019-03-24T02:11:19.669Z,102691.63
2019-03-24T02:13:48.691Z,102686.12
2019-03-24T02:16:17.806Z,102690.25
2019-03-24T02:18:46.850Z,102686.97
2019-03-24T02:21:16.006Z,102686.45
2019-03-24T02:23:45.732Z,102680.61
2019-03-24T02:26:14.747Z,102679.75
2019-03-24T02:28:43.909Z,102682.51
2019-03-24T02:31:12.934Z,102677.00
2019-03-24T02:33:42.108Z,102677.00
2019-03-24T02:36:11.228Z,102679.75
2019-03-24T02:38:40.727Z,102666.52
2019-03-24T02:41:10.034Z,102662.94
2019-03-24T02:43:39.591Z,102665.99
2019-03-24T02:46:08.732Z,102659.97
2019-03-24T02:48:37.872Z,102672.58
2019-03-24T02:51:07.282Z,102667.89
2019-03-24T02:53:36.362Z,102685.27
2019-03-24T02:56:05.498Z,102681.13
2019-03-24T02:58:34.551Z,102684.41
2019-03-24T03:01:03.606Z,102685.27
2019-03-24T03:03:32.660Z,102687.72
2019-03-24T03:06:01.793Z,102679.75
2019-03-24T03:08:30.928Z,102683.59
2019-03-24T03:11:00.025Z,102672.02
2019-03-24T03:13:29.451Z,102674.25
2019-03-24T03:15:58.579Z,102665.14
2019-03-24T03:18:27.658Z,102658.25
2019-03-24T03:20:56.787Z,102656.35
2019-03-24T03:23:25.911Z,102653.08
2019-03-24T03:25:55.215Z,102651.48
2019-03-24T03:28:24.326Z,102649.05
2019-03-24T03:30:53.461Z,102648.84
2019-03-24T03:33:22.577Z,102654.15
2019-03-24T03:35:51.606Z,102652.77
2019-03-24T03:38:20.736Z,102650.31
2019-03-24T03:40:49.802Z,102651.69
2019-03-24T03:43:18.946Z,102641.20
2019-03-24T03:45:48.009Z,102632.94
2019-03-24T03:48:17.387Z,102623.86
2019-03-24T03:50:46.527Z,102629.14
2019-03-24T03:53:15.888Z,102618.66
2019-03-24T03:55:45.114Z,102622.48
2019-03-24T03:58:14.567Z,102616.98
2019-03-24T04:00:43.776Z,102620.25
2019-03-24T04:03:12.824Z,102619.41
2019-03-24T04:05:41.856Z,102622.16
2019-03-24T04:08:10.895Z,102616.65
2019-03-24T04:10:40.205Z,102605.86
2019-03-24T04:13:09.489Z,102614.12
2019-03-24T04:15:38.718Z,102609.47
2019-03-24T04:18:08.077Z,102601.20
2019-03-24T04:20:37.213Z,102586.06
2019-03-24T04:23:06.333Z,102588.81
2019-03-24T04:25:35.461Z,102593.47
2019-03-24T04:28:04.594Z,102597.79
2019-03-24T04:30:33.654Z,102603.63
2019-03-24T04:33:02.795Z,102601.20
2019-03-24T04:35:31.831Z,102601.20
2019-03-24T04:38:00.882Z,102607.53
2019-03-24T04:40:30.024Z,102604.48
2019-03-24T04:42:59.352Z,102605.64
2019-03-24T04:45:28.466Z,102607.53
2019-03-24T04:47:57.528Z,102607.01
2019-03-24T04:50:26.639Z,102608.91
2019-03-24T04:52:55.769Z,102607.01
2019-03-24T04:55:25.111Z,102597.38
2019-03-24T04:57:54.253Z,102601.92
2019-03-24T05:00:39.045Z,102607.86
2019-03-24T05:03:08.178Z,102602.88
2019-03-24T05:05:37.986Z,102609.24
2019-03-24T05:08:07.114Z,102610.09
2019-03-24T05:10:36.242Z,102613.89
2019-03-24T05:13:05.357Z,102602.88
2019-03-24T05:15:34.495Z,102602.88
2019-03-24T05:18:03.566Z,102595.14
2019-03-24T05:20:32.756Z,102591.87
2019-03-24T05:23:01.903Z,102587.44
2019-03-24T05:25:31.561Z,102587.44
2019-03-24T05:28:00.662Z,102587.44
2019-03-24T05:30:29.716Z,102588.81
2019-03-24T05:32:58.862Z,102589.86
2019-03-24T05:35:27.920Z,102592.95
2019-03-24T05:37:57.109Z,102595.38
2019-03-24T05:40:26.130Z,102588.48
2019-03-24T05:42:55.686Z,102588.16
2019-03-24T05:45:24.731Z,102584.36
2019-03-24T05:47:53.843Z,102582.65
2019-03-24T05:50:22.959Z,102585.73
2019-03-24T05:52:52.127Z,102591.77
2019-03-24T05:55:21.719Z,102592.62
2019-03-24T05:57:51.107Z,102596.22
2019-03-24T06:00:20.222Z,102598.45
2019-03-24T06:02:49.267Z,102599.50
2019-03-24T06:05:18.645Z,102592.62
2019-03-24T06:07:47.992Z,102581.61
2019-03-24T06:10:17.048Z,102581.94
2019-03-24T06:12:46.097Z,102580.00
2019-03-24T06:15:15.314Z,102579.70
2019-03-24T06:17:47.994Z,102581.08
2019-03-24T06:20:15.278Z,102584.03
2019-03-24T06:22:44.318Z,102584.69
2019-03-24T06:25:13.428Z,102578.85
2019-03-24T06:27:42.510Z,102579.18
2019-03-24T06:30:13.284Z,102575.05
2019-03-24T06:32:42.426Z,102562.66
2019-03-24T06:35:11.582Z,102567.09
2019-03-24T06:37:40.679Z,102569.55
2019-03-24T06:40:09.810Z,102571.22
2019-03-24T06:42:39.128Z,102566.79
2019-03-24T06:45:08.264Z,102571.22
2019-03-24T06:47:37.406Z,102571.22
2019-03-24T06:50:06.688Z,102565.71
2019-03-24T06:52:35.811Z,102564.04
2019-03-24T06:55:05.153Z,102562.66
2019-03-24T06:57:34.268Z,102559.91
2019-03-24T07:00:03.326Z,102553.03
2019-03-24T07:02:33.035Z,102552.36
2019-03-24T07:05:02.146Z,102552.70
2019-03-24T07:07:31.279Z,102545.48
2019-03-24T07:10:00.431Z,102543.06
2019-03-24T07:12:29.687Z,102546.04
2019-03-24T07:14:58.799Z,102536.08
2019-03-24T07:17:27.924Z,102547.94
2019-03-24T07:19:57.024Z,102545.70
2019-03-24T07:22:26.175Z,102544.66
2019-03-24T07:24:55.309Z,102555.12
2019-03-24T07:27:24.517Z,102549.61
2019-03-24T07:29:54.171Z,102550.98
2019-03-24T07:32:23.230Z,102559.25
2019-03-24T07:34:52.343Z,102556.83
2019-03-24T07:37:21.382Z,102552.70
2019-03-24T07:39:50.502Z,102556.49
2019-03-24T07:42:19.545Z,102559.91
2019-03-24T07:44:48.590Z,102555.45
2019-03-24T07:47:17.715Z,102551.65
2019-03-24T07:49:46.872Z,102543.91
2019-03-24T07:52:16.555Z,102554.40
2019-03-24T07:54:45.663Z,102554.40
2019-03-24T07:57:14.779Z,102546.14
2019-03-24T07:59:43.886Z,102537.88
2019-03-24T08:02:13.368Z,102531.82
2019-03-24T08:04:42.403Z,102527.69
2019-03-24T08:07:11.449Z,102528.25
2019-03-24T08:09:40.507Z,102520.51
2019-03-24T08:12:09.561Z,102515.00
2019-03-24T08:14:38.654Z,102511.72
2019-03-24T08:17:07.781Z,102515.86
2019-03-24T08:19:36.827Z,102518.61
2019-03-24T08:22:05.946Z,102515.63
2019-03-24T08:24:35.041Z,102518.38
2019-03-24T08:27:04.169Z,102509.27
2019-03-24T08:29:33.225Z,102513.20
2019-03-24T08:32:02.359Z,102509.86
2019-03-24T08:34:31.401Z,102526.72
2019-03-24T08:37:00.512Z,102522.41
2019-03-24T08:39:29.640Z,102521.78
2019-03-24T08:41:58.718Z,102527.60
2019-03-24T08:44:27.808Z,102527.34
2019-03-24T08:46:56.932Z,102520.20
2019-03-24T08:49:25.994Z,102509.53
2019-03-24T08:51:55.107Z,102508.64
2019-03-24T08:54:24.229Z,102500.88
2019-03-24T08:56:53.541Z,102491.16
2019-03-24T08:59:22.681Z,102489.91
2019-03-24T09:01:51.802Z,102488.59
2019-03-24T09:04:20.863Z,102484.08
2019-03-24T09:06:50.004Z,102482.70
2019-03-24T09:09:19.146Z,102477.39
2019-03-24T09:11:48.300Z,102474.16
2019-03-24T09:14:17.327Z,102460.44
2019-03-24T09:16:46.479Z,102460.37
2019-03-24T09:19:15.837Z,102445.89
2019-03-24T09:21:44.962Z,102440.24
2019-03-24T09:24:14.077Z,102435.27
2019-03-24T09:26:43.126Z,102434.73
2019-03-24T09:29:12.229Z,102428.08
2019-03-24T09:31:41.442Z,102432.09
2019-03-24T09:34:10.617Z,102432.30
2019-03-24T09:36:39.741Z,102435.48
2019-03-24T09:39:09.108Z,102433.47
2019-03-24T09:41:38.331Z,102432.20
2019-03-24T09:44:07.488Z,102418.86
2019-03-24T09:46:36.591Z,102419.81
2019-03-24T09:49:05.707Z,102421.81
2019-03-24T09:51:35.169Z,102421.40
2019-03-24T09:54:04.246Z,102421.50
2019-03-24T09:56:33.291Z,102423.50
2019-03-24T09:59:02.315Z,102421.70
2019-03-24T10:01:31.390Z,102421.81
2019-03-24T10:04:00.444Z,102420.54
2019-03-24T10:06:29.496Z,102418.41
2019-03-24T10:08:58.543Z,102415.77
2019-03-24T10:11:27.677Z,102408.13
2019-03-24T10:13:56.795Z,102389.50
2019-03-24T10:16:25.845Z,102379.64
2019-03-24T10:18:54.969Z,102368.44
2019-03-24T10:21:24.104Z,102360.48
2019-03-24T10:23:53.983Z,102355.92
2019-03-24T10:26:23.097Z,102352.13
2019-03-24T10:28:52.146Z,102359.00
2019-03-24T10:31:21.195Z,102351.41
2019-03-24T10:33:50.238Z,102356.16
2019-03-24T10:36:19.306Z,102351.50
2019-03-24T10:38:48.618Z,102353.50
2019-03-24T10:41:17.663Z,102352.98
2019-03-24T10:43:46.707Z,102353.27
2019-03-24T10:46:15.824Z,102342.59
2019-03-24T10:48:44.937Z,102341.22
2019-03-24T10:51:14.455Z,102338.46
2019-03-24T10:53:43.599Z,102335.37
2019-03-24T10:56:12.650Z,102343.97
2019-03-24T10:58:42.069Z,102342.59
2019-03-24T11:01:11.391Z,102339.51
2019-03-24T11:03:40.774Z,102342.27
2019-03-24T11:06:09.799Z,102344.72
2019-03-24T11:08:38.955Z,102343.34
2019-03-24T11:11:07.974Z,102344.72
2019-03-24T11:13:37.085Z,102341.11
2019-03-24T11:16:06.584Z,102338.13
2019-03-24T11:18:35.709Z,102333.16
2019-03-24T11:21:04.888Z,102325.75
2019-03-24T11:23:33.931Z,102315.59
2019-03-24T11:26:03.075Z,102310.70
2019-03-24T11:28:32.204Z,102307.72
2019-03-24T11:31:01.262Z,102305.83
2019-03-24T11:33:30.388Z,102296.52
2019-03-24T11:35:59.743Z,102288.02
2019-03-24T11:38:28.859Z,102296.17
2019-03-24T11:40:58.009Z,102291.20
2019-03-24T11:43:27.072Z,102292.34
2019-03-24T11:45:56.201Z,102290.44
2019-03-24T11:48:25.319Z,102283.03
2019-03-24T11:50:54.398Z,102276.02
2019-03-24T11:53:23.510Z,102281.37
2019-03-24T11:55:52.652Z,102277.25
2019-03-24T11:58:21.707Z,102276.81
2019-03-24T12:00:50.833Z,102279.12
2019-03-24T12:03:19.918Z,102272.02
2019-03-24T12:05:49.066Z,102268.83
2019-03-24T12:08:18.116Z,102265.22
2019-03-24T12:10:47.278Z,102262.38
2019-03-24T12:13:16.409Z,102246.56
2019-03-24T12:15:46.350Z,102241.56
2019-03-24T12:18:15.471Z,102244.69
2019-03-24T12:20:44.606Z,102241.27
2019-03-24T12:23:13.787Z,102236.02
2019-03-24T12:25:42.927Z,102232.91
2019-03-24T12:28:12.023Z,102239.41
2019-03-24T12:30:41.370Z,102238.88
2019-03-24T12:33:10.535Z,102232.91
2019-03-24T12:35:39.969Z,102229.22
2019-03-24T12:38:09.079Z,102225.23
2019-03-24T12:40:38.583Z,102221.31
2019-03-24T12:43:18.620Z,102216.33
2019-03-24T12:45:38.536Z,102213.28
2019-03-24T12:48:07.609Z,102213.43
2019-03-24T12:50:36.962Z,102208.12
2019-03-24T12:53:06.007Z,102200.71
2019-03-24T12:55:35.158Z,102193.85
2019-03-24T12:58:04.575Z,102190.30
2019-03-24T13:00:35.294Z,102187.47
2019-03-24T13:03:04.547Z,102182.13
2019-03-24T13:05:33.621Z,102182.41
2019-03-24T13:08:12.546Z,102179.01
2019-03-24T13:10:41.727Z,102170.30
2019-03-24T13:13:10.878Z,102169.36
2019-03-24T13:15:40.023Z,102168.91
2019-03-24T13:18:09.136Z,102166.77
2019-03-24T13:20:38.892Z,102169.23
2019-03-24T13:23:08.067Z,102162.72
2019-03-24T13:25:37.180Z,102167.33
2019-03-24T13:28:06.340Z,102162.64
2019-03-24T13:30:35.447Z,102160.80
2019-03-24T13:33:04.818Z,102150.64
2019-03-24T13:35:34.082Z,102150.56
2019-03-24T13:38:03.148Z,102145.20
2019-03-24T13:40:32.645Z,102138.94
2019-03-24T13:43:01.704Z,102128.84
2019-03-24T13:45:30.855Z,102129.45
2019-03-24T13:47:59.917Z,102125.03
2019-03-24T13:50:31.705Z,102119.15
2019-03-24T13:52:59.929Z,102121.06
2019-03-24T13:55:29.413Z,102110.11
2019-03-24T13:57:58.455Z,102104.50
2019-03-24T14:00:27.827Z,102105.33
2019-03-24T14:02:56.960Z,102105.97
2019-03-24T14:05:26.078Z,102105.20
2019-03-24T14:07:55.647Z,102103.27
2019-03-24T14:10:24.773Z,102103.47
2019-03-24T14:12:54.014Z,102104.26
2019-03-24T14:15:23.143Z,102097.75
2019-03-24T14:17:52.259Z,102098.78
2019-03-24T14:20:21.370Z,102091.50
2019-03-24T14:22:50.486Z,102080.59
2019-03-24T14:25:19.641Z,102072.50
2019-03-24T14:27:48.767Z,102072.93
2019-03-24T14:30:22.442Z,102076.47
2019-03-24T14:32:51.563Z,102069.42
2019-03-24T14:35:20.692Z,102058.56
2019-03-24T14:37:49.834Z,102056.70
2019-03-24T14:40:19.282Z,102046.38
2019-03-24T14:42:48.427Z,102032.70
2019-03-24T14:45:17.488Z,102033.80
2019-03-24T14:47:46.621Z,102026.14
2019-03-24T14:50:15.691Z,102020.34
2019-03-24T14:52:45.587Z,102017.53
2019-03-24T14:55:14.711Z,102018.64
2019-03-24T14:57:43.894Z,102016.06
2019-03-24T15:00:13.021Z,102009.97
2019-03-24T15:02:42.165Z,102010.34
2019-03-24T15:05:11.216Z,102008.80
2019-03-24T15:07:40.586Z,102010.25
2019-03-24T15:10:10.342Z,102006.83
2019-03-24T15:12:39.510Z,102010.56
2019-03-24T15:15:08.753Z,102001.33
2019-03-24T15:17:37.829Z,101995.14
2019-03-24T15:20:07.154Z,102005.99
2019-03-24T15:22:36.215Z,102001.09
2019-03-24T15:25:05.582Z,101998.66
2019-03-24T15:27:35.028Z,102002.63
2019-03-24T15:30:04.396Z,101992.47
2019-03-24T15:32:33.534Z,101995.22
2019-03-24T15:35:02.567Z,101993.61
2019-03-24T15:37:31.695Z,101981.09
2019-03-24T15:40:00.823Z,101981.45
2019-03-24T15:42:29.971Z,101977.64
2019-03-24T15:44:59.134Z,101967.16
2019-03-24T15:47:28.259Z,101965.02
2019-03-24T15:49:57.391Z,101962.33
2019-03-24T15:52:26.769Z,101961.28
2019-03-24T15:54:55.907Z,101966.62
2019-03-24T15:57:25.046Z,101954.55
2019-03-24T15:59:54.179Z,101957.91
2019-03-24T16:02:23.221Z,101951.63
2019-03-24T16:29:38.140Z,101916.30
2019-03-24T16:32:07.191Z,101930.25
2019-03-24T16:34:36.245Z,101932.24
2019-03-24T16:37:05.539Z,101936.62
2019-03-24T16:39:34.851Z,101933.98
2019-03-24T16:42:04.458Z,101919.98
2019-03-24T16:44:33.785Z,101915.89
2019-03-24T16:47:02.836Z,101915.34
2019-03-24T16:49:32.250Z,101921.80
2019-03-24T16:52:01.300Z,101901.18
2019-03-24T16:54:30.852Z,101895.89
2019-03-24T16:56:59.985Z,101893.55
2019-03-24T16:59:29.047Z,101885.50
2019-03-24T17:01:58.198Z,101884.65
2019-03-24T17:04:27.275Z,101881.11
2019-03-24T17:06:56.334Z,101882.61
2019-03-24T17:09:25.396Z,101878.25
2019-03-24T17:11:56.989Z,101862.66
2019-03-24T17:14:25.591Z,101869.38
2019-03-24T17:16:54.640Z,101870.66
2019-03-24T17:19:23.714Z,101865.76
2019-03-24T17:21:52.767Z,101707.72
2019-03-24T17:24:21.810Z,101859.33
2019-03-24T17:26:50.917Z,101860.97
2019-03-24T17:29:19.927Z,101864.36
2019-03-24T17:31:49.013Z,101857.61
2019-03-24T17:34:18.835Z,101872.38
2019-03-24T17:36:47.992Z,101865.59
2019-03-24T17:39:17.010Z,101864.73
2019-03-24T17:41:46.115Z,101867.44
2019-03-24T17:44:15.207Z,101776.70
2019-03-24T17:46:44.236Z,101866.06
2019-03-24T17:49:13.569Z,101860.65
2019-03-24T17:51:42.595Z,101868.42
2019-03-24T17:54:11.658Z,101861.65
2019-03-24T17:56:40.703Z,101869.45
2019-03-24T17:59:10.087Z,101857.91
2019-03-24T18:01:39.104Z,101856.56
2019-03-24T18:04:08.189Z,101855.53
2019-03-24T18:06:37.252Z,101851.11
2019-03-24T18:09:08.262Z,101852.14
2019-03-24T18:11:37.302Z,101848.04
2019-03-24T18:14:06.417Z,101847.69
2019-03-24T18:16:35.477Z,101845.97
2019-03-24T18:19:04.517Z,101838.48
2019-03-24T18:21:33.600Z,101839.69
2019-03-24T18:24:02.642Z,101831.98
2019-03-24T18:26:31.688Z,101837.63
2019-03-24T18:29:00.751Z,101837.62
2019-03-24T18:31:30.065Z,101836.41
2019-03-24T18:33:59.108Z,101838.38
2019-03-24T18:36:28.161Z,101823.55
2019-03-24T18:38:57.240Z,101827.92
2019-03-24T18:41:26.382Z,101832.43
2019-03-24T18:43:55.435Z,101831.58
2019-03-24T18:46:24.491Z,101836.66
2019-03-24T18:48:53.637Z,101834.20
2019-03-24T18:51:22.949Z,101831.78
2019-03-24T18:53:52.021Z,101824.26
2019-03-24T18:56:21.313Z,101823.54
2019-03-24T18:58:50.450Z,101828.50
2019-03-24T19:01:19.512Z,101833.84
2019-03-24T19:03:48.562Z,101826.30
2019-03-24T19:06:17.609Z,101832.08
2019-03-24T19:08:46.639Z,101823.91
2019-03-24T19:11:15.686Z,101814.08
2019-03-24T19:13:44.757Z,101809.71
2019-03-24T19:16:14.054Z,101814.35
2019-03-24T19:18:43.098Z,101801.48
2019-03-24T19:21:12.900Z,101797.55
2019-03-24T19:23:41.980Z,101800.08
2019-03-24T19:26:10.986Z,101791.00
2019-03-24T19:28:40.097Z,101776.78
2019-03-24T19:31:09.154Z,101774.38
2019-03-24T19:33:38.187Z,101777.16
2019-03-24T19:36:07.295Z,101768.98
2019-03-24T19:38:36.371Z,101774.37
2019-03-24T19:41:05.881Z,101775.61
2019-03-24T19:43:34.977Z,101761.89
2019-03-24T19:46:04.050Z,101762.28
2019-03-24T19:48:33.097Z,101755.53
2019-03-24T19:51:02.462Z,101751.47
2019-03-24T19:53:31.518Z,101756.73
2019-03-24T19:56:00.553Z,101749.84
2019-03-24T19:58:29.615Z,101749.00
2019-03-24T20:00:59.153Z,101737.81
2019-03-24T20:03:28.200Z,101742.14
2019-03-24T20:05:57.251Z,101732.45
2019-03-24T20:08:26.609Z,101726.13
2019-03-24T20:10:55.971Z,101718.80
2019-03-24T20:13:25.111Z,101712.91
2019-03-24T20:15:54.164Z,101705.58
2019-03-24T20:18:23.237Z,101705.01
2019-03-24T20:20:52.355Z,101699.02
2019-03-24T20:23:21.411Z,101684.92
2019-03-24T20:25:50.468Z,101677.63
2019-03-24T20:28:19.481Z,101675.86
2019-03-24T20:30:48.556Z,101664.95
2019-03-24T20:33:17.617Z,101656.08
2019-03-24T20:35:46.647Z,101648.28
2019-03-24T20:38:15.673Z,101652.78
2019-03-24T20:40:44.738Z,101651.67
2019-03-24T20:43:13.819Z,101642.20
2019-03-24T20:45:42.873Z,101647.31
2019-03-24T20:48:11.959Z,101635.45
2019-03-24T20:50:41.070Z,101635.62
2019-03-24T20:53:17.962Z,101632.56
2019-03-24T20:55:41.163Z,101632.67
2019-03-24T20:58:10.201Z,101628.22
2019-03-24T21:00:39.314Z,101619.66
2019-03-24T21:03:08.663Z,101614.82
2019-03-24T21:05:38.006Z,101611.34
2019-03-24T21:08:07.421Z,101612.31
2019-03-24T21:10:36.684Z,101612.41
2019-03-24T21:13:05.913Z,101606.63
2019-03-24T21:15:35.273Z,101605.02
2019-03-24T21:18:04.362Z,101602.05
2019-03-24T21:20:33.388Z,101596.66
2019-03-24T21:23:02.450Z,101593.84
2019-03-24T21:25:31.519Z,101594.23
2019-03-24T21:28:00.576Z,101568.13
2019-03-24T21:30:34.104Z,101577.89
2019-03-24T21:33:03.153Z,101580.36
2019-03-24T21:35:32.198Z,101591.23
2019-03-24T21:38:01.356Z,101580.98
2019-03-24T21:40:30.476Z,101570.05
2019-03-24T21:42:59.549Z,101562.36
2019-03-24T21:45:28.687Z,101567.51
2019-03-24T21:47:57.756Z,101562.27
2019-03-24T21:50:26.826Z,101551.61
2019-03-24T21:52:55.870Z,101550.73
2019-03-24T21:55:24.988Z,101549.31
2019-03-24T21:57:57.747Z,101545.22
2019-03-24T22:00:35.724Z,101537.59
2019-03-24T22:03:05.016Z,101532.25
2019-03-24T22:05:34.213Z,101526.80
2019-03-24T22:08:03.262Z,101518.09
2019-03-24T22:10:32.418Z,101524.09
2019-03-24T22:13:01.499Z,101514.91
2019-03-24T22:15:30.922Z,101511.76
2019-03-24T22:17:59.953Z,101500.86
2019-03-24T22:20:29.019Z,101496.12
2019-03-24T22:22:58.044Z,101489.98
2019-03-24T22:25:27.107Z,101492.97
2019-03-24T22:27:56.197Z,101480.05
2019-03-24T22:30:25.252Z,101484.31
2019-03-24T22:32:54.321Z,101468.95
2019-03-24T22:35:23.421Z,101464.63
2019-03-24T22:37:52.700Z,101461.08
2019-03-24T22:40:21.758Z,101447.37
2019-03-24T22:42:50.822Z,101435.83
2019-03-24T22:45:19.879Z,101425.05
2019-03-24T22:47:48.908Z,101427.24
2019-03-24T22:50:17.940Z,101417.33
2019-03-24T22:52:46.972Z,101405.69
2019-03-24T22:55:16.110Z,101402.11
2019-03-24T22:57:45.385Z,101403.74
2019-03-24T23:00:20.918Z,101393.38
2019-03-24T23:02:50.056Z,101399.15
2019-03-24T23:05:19.087Z,101380.86
2019-03-24T23:07:48.240Z,101375.11
2019-03-24T23:10:17.279Z,101373.92
2019-03-24T23:12:46.599Z,101362.73
2019-03-24T23:15:15.675Z,101356.30
2019-03-24T23:17:44.731Z,101353.95
2019-03-24T23:20:13.783Z,101352.15
2019-03-24T23:22:42.841Z,101334.25
2019-03-24T23:25:11.931Z,101335.80
2019-03-24T23:27:41.005Z,101330.23
2019-03-24T23:30:10.206Z,101317.23
2019-03-24T23:32:39.643Z,101293.31
2019-03-24T23:35:08.700Z,101301.84
2019-03-24T23:37:37.725Z,101293.00
2019-03-24T23:40:06.889Z,101288.85
2019-03-24T23:42:35.990Z,101275.02
2019-03-24T23:45:05.795Z,101266.63
2019-03-24T23:47:34.847Z,101263.07
2019-03-24T23:50:04.123Z,101266.60
2019-03-24T23:52:33.167Z,101252.70
2019-03-24T23:55:02.217Z,101249.54
2019-03-24T23:57:31.261Z,101251.14
